createdAt,value
2018-09-19T00:00:55.091Z,5.07
2018-09-19T00:03:23.982Z,5.07
2018-09-19T00:05:52.531Z,4.53
2018-09-19T00:08:21.070Z,4.30
2018-09-19T00:10:50.013Z,5.03
2018-09-19T00:13:18.581Z,5.00
2018-09-19T00:15:47.226Z,5.17
2018-09-19T00:18:15.866Z,5.23
2018-09-19T00:20:44.330Z,4.77
2018-09-19T00:23:12.907Z,5.13
2018-09-19T00:25:41.806Z,4.77
2018-09-19T00:28:10.442Z,5.20
2018-09-19T00:30:39.180Z,5.17
2018-09-19T00:33:07.923Z,5.03
2018-09-19T00:35:36.674Z,5.20
2018-09-19T00:38:05.222Z,4.80
2018-09-19T00:40:33.867Z,4.90
2018-09-19T00:43:02.403Z,5.40
2018-09-19T00:45:31.004Z,5.40
2018-09-19T00:47:59.628Z,5.53
2018-09-19T00:50:28.330Z,5.60
2018-09-19T00:52:56.856Z,5.23
2018-09-19T00:55:25.715Z,5.10
2018-09-19T00:57:54.216Z,5.23
2018-09-19T01:00:22.732Z,5.17
2018-09-19T01:02:51.298Z,5.63
2018-09-19T01:05:19.846Z,5.20
2018-09-19T01:07:48.438Z,4.60
2018-09-19T01:10:16.998Z,5.10
2018-09-19T01:12:45.494Z,5.60
2018-09-19T01:15:14.115Z,5.27
2018-09-19T01:17:42.728Z,4.50
2018-09-19T01:20:11.379Z,5.10
2018-09-19T01:22:39.891Z,4.87
2018-09-19T01:25:08.509Z,4.93
2018-09-19T01:27:37.408Z,5.13
2018-09-19T01:30:06.299Z,5.53
2018-09-19T01:32:35.205Z,5.03
2018-09-19T01:35:04.124Z,5.47
2018-09-19T01:37:32.578Z,5.27
2018-09-19T01:40:01.200Z,5.30
2018-09-19T01:42:29.749Z,4.60
2018-09-19T01:44:58.262Z,4.67
2018-09-19T01:47:27.091Z,5.30
2018-09-19T01:49:56.058Z,5.03
2018-09-19T01:52:24.598Z,4.87
2018-09-19T01:54:53.160Z,5.60
2018-09-19T01:57:21.719Z,4.93
2018-09-19T01:59:50.449Z,4.97
2018-09-19T02:02:18.982Z,5.47
2018-09-19T02:04:47.555Z,5.60
2018-09-19T02:07:16.086Z,5.37
2018-09-19T02:09:44.719Z,5.33
2018-09-19T02:12:13.283Z,5.23
2018-09-19T02:14:41.831Z,5.97
2018-09-19T02:17:10.473Z,5.70
2018-09-19T02:19:38.966Z,5.53
2018-09-19T02:22:07.555Z,4.90
2018-09-19T02:24:36.431Z,5.60
2018-09-19T02:27:04.994Z,5.80
2018-09-19T02:29:33.716Z,5.37
2018-09-19T02:32:02.259Z,5.03
2018-09-19T02:34:31.267Z,4.93
2018-09-19T02:36:59.799Z,4.87
2018-09-19T02:39:28.451Z,5.10
2018-09-19T02:41:56.975Z,5.50
2018-09-19T02:44:25.502Z,5.20
2018-09-19T02:46:53.967Z,4.53
2018-09-19T02:49:22.501Z,5.50
2018-09-19T02:51:51.103Z,5.07
2018-09-19T02:54:19.634Z,6.00
2018-09-19T02:56:48.414Z,6.20
2018-09-19T02:59:17.134Z,5.83
2018-09-19T03:01:45.768Z,5.83
2018-09-19T03:04:14.277Z,6.07
2018-09-19T03:06:42.771Z,5.73
2018-09-19T03:09:11.295Z,5.63
2018-09-19T03:11:40.115Z,5.93
2018-09-19T03:14:08.836Z,5.87
2018-09-19T03:16:37.463Z,5.87
2018-09-19T03:19:05.952Z,5.63
2018-09-19T03:21:34.536Z,5.13
2018-09-19T03:24:03.489Z,5.23
2018-09-19T03:26:32.038Z,5.80
2018-09-19T03:29:00.544Z,5.70
2018-09-19T03:31:29.557Z,5.43
2018-09-19T03:33:58.192Z,5.57
2018-09-19T03:36:26.887Z,6.00
2018-09-19T03:38:55.739Z,5.87
2018-09-19T03:41:24.510Z,5.57
2018-09-19T03:43:53.010Z,5.30
2018-09-19T03:46:21.633Z,5.20
2018-09-19T03:48:50.176Z,5.37
2018-09-19T03:51:18.707Z,5.63
2018-09-19T03:53:47.297Z,5.80
2018-09-19T03:56:16.102Z,5.43
2018-09-19T03:58:45.117Z,5.50
2018-09-19T04:01:13.831Z,6.20
2018-09-19T04:03:42.449Z,6.07
2018-09-19T04:06:10.993Z,6.13
2018-09-19T04:08:39.785Z,5.97
2018-09-19T04:11:08.290Z,5.70
2018-09-19T04:13:36.842Z,6.10
2018-09-19T04:16:05.607Z,5.50
2018-09-19T04:18:34.167Z,5.47
2018-09-19T04:21:02.683Z,5.60
2018-09-19T04:23:31.390Z,5.87
2018-09-19T04:26:00.377Z,6.40
2018-09-19T04:28:29.083Z,5.47
2018-09-19T04:30:57.803Z,6.10
2018-09-19T04:33:26.305Z,6.00
2018-09-19T04:35:55.239Z,5.93
2018-09-19T04:38:23.971Z,6.07
2018-09-19T04:40:52.522Z,6.00
2018-09-19T04:43:21.072Z,6.07
2018-09-19T04:45:49.789Z,6.23
2018-09-19T04:48:18.444Z,5.90
2018-09-19T04:50:47.287Z,5.73
2018-09-19T04:53:15.944Z,6.27
2018-09-19T04:55:44.624Z,5.67
2018-09-19T04:58:13.116Z,5.73
2018-09-19T05:00:41.655Z,5.97
2018-09-19T05:03:10.399Z,6.67
2018-09-19T05:05:39.124Z,6.80
2018-09-19T05:08:08.017Z,6.17
2018-09-19T05:10:36.881Z,5.63
2018-09-19T05:13:05.517Z,5.87
2018-09-19T05:15:34.083Z,5.73
2018-09-19T05:18:02.699Z,5.90
2018-09-19T05:20:31.491Z,6.67
2018-09-19T05:23:00.081Z,6.30
2018-09-19T05:25:28.682Z,6.30
2018-09-19T05:27:57.206Z,6.30
2018-09-19T05:30:25.940Z,6.60
2018-09-19T05:32:54.472Z,6.37
2018-09-19T05:35:23.351Z,7.40
2018-09-19T05:37:52.211Z,6.63
2018-09-19T05:40:20.715Z,6.63
2018-09-19T05:42:49.591Z,6.37
2018-09-19T05:45:18.164Z,6.57
2018-09-19T05:47:46.670Z,6.40
2018-09-19T05:50:15.707Z,6.57
2018-09-19T05:52:44.212Z,7.23
2018-09-19T05:55:12.735Z,6.40
2018-09-19T05:57:41.276Z,7.00
2018-09-19T06:00:10.029Z,6.40
2018-09-19T06:02:38.775Z,6.97
2018-09-19T06:05:07.659Z,7.03
2018-09-19T06:07:36.213Z,6.80
2018-09-19T06:10:05.057Z,6.60
2018-09-19T06:12:33.831Z,7.03
2018-09-19T06:15:02.382Z,6.23
2018-09-19T06:17:31.292Z,7.17
2018-09-19T06:19:59.939Z,6.90
2018-09-19T06:22:28.570Z,7.07
2018-09-19T06:24:57.090Z,7.00
2018-09-19T06:27:25.729Z,6.13
2018-09-19T06:29:54.285Z,6.40
2018-09-19T06:32:22.844Z,6.90
2018-09-19T06:34:51.635Z,5.93
2018-09-19T06:37:20.341Z,6.43
2018-09-19T06:39:48.851Z,6.47
2018-09-19T06:42:17.625Z,6.63
2018-09-19T06:44:46.133Z,5.73
2018-09-19T06:47:14.658Z,6.00
2018-09-19T06:49:43.175Z,5.70
2018-09-19T06:52:11.819Z,5.60
2018-09-19T06:54:40.344Z,5.33
2018-09-19T06:57:08.958Z,5.87
2018-09-19T06:59:37.588Z,6.33
2018-09-19T07:02:06.722Z,5.60
2018-09-19T07:04:35.358Z,5.90
2018-09-19T07:07:04.046Z,5.43
2018-09-19T07:09:32.864Z,6.03
2018-09-19T07:12:01.420Z,6.30
2018-09-19T07:14:30.273Z,5.77
2018-09-19T07:16:59.199Z,6.00
2018-09-19T07:19:28.025Z,5.93
2018-09-19T07:21:56.729Z,5.67
2018-09-19T07:24:25.227Z,6.43
2018-09-19T07:26:54.004Z,6.50
2018-09-19T07:29:22.792Z,6.53
2018-09-19T07:31:51.478Z,6.43
2018-09-19T07:34:20.082Z,6.57
2018-09-19T07:36:48.697Z,6.47
2018-09-19T07:39:17.338Z,6.20
2018-09-19T07:41:45.887Z,6.17
2018-09-19T07:44:14.468Z,6.30
2018-09-19T07:46:43.053Z,6.30
2018-09-19T07:49:11.581Z,6.77
2018-09-19T07:51:40.241Z,6.07
2018-09-19T07:54:09.108Z,5.83
2018-09-19T07:56:37.933Z,5.73
2018-09-19T07:59:06.801Z,6.47
2018-09-19T08:01:36.081Z,5.80
2018-09-19T08:04:05.018Z,5.50
2018-09-19T08:06:33.767Z,6.07
2018-09-19T08:09:02.474Z,5.83
2018-09-19T08:11:30.961Z,6.07
2018-09-19T08:13:59.911Z,5.43
2018-09-19T08:16:28.410Z,5.67
2018-09-19T08:18:56.958Z,5.43
2018-09-19T08:21:26.005Z,5.33
2018-09-19T08:23:54.995Z,5.97
2018-09-19T08:26:23.586Z,5.17
2018-09-19T08:28:52.240Z,5.47
2018-09-19T08:31:21.228Z,5.27
2018-09-19T08:33:50.025Z,6.10
2018-09-19T08:36:18.589Z,5.87
2018-09-19T08:38:47.277Z,5.80
2018-09-19T08:41:15.770Z,5.80
2018-09-19T08:43:44.471Z,5.33
2018-09-19T08:46:13.348Z,5.17
2018-09-19T08:48:41.879Z,5.67
2018-09-19T08:51:10.877Z,5.50
2018-09-19T08:53:39.645Z,5.50
2018-09-19T08:56:08.420Z,5.13
2018-09-19T08:58:37.047Z,5.27
2018-09-19T09:01:05.888Z,5.57
2018-09-19T09:03:34.581Z,4.57
2018-09-19T09:06:03.186Z,5.10
2018-09-19T09:08:31.839Z,4.83
2018-09-19T09:11:00.638Z,5.10
2018-09-19T09:13:29.728Z,5.20
2018-09-19T09:15:58.593Z,4.63
2018-09-19T09:18:27.404Z,4.73
2018-09-19T09:20:56.161Z,4.40
2018-09-19T09:23:24.701Z,4.07
2018-09-19T09:25:54.108Z,4.63
2018-09-19T09:28:22.880Z,4.65
2018-09-19T09:30:51.643Z,4.25
2018-09-19T09:33:20.276Z,4.00
2018-09-19T09:35:48.937Z,3.90
2018-09-19T09:38:17.531Z,4.20
2018-09-19T09:40:46.323Z,3.85
2018-09-19T09:43:15.038Z,3.70
2018-09-19T09:45:43.548Z,3.40
2018-09-19T09:48:12.122Z,3.80
2018-09-19T09:50:41.151Z,3.45
2018-09-19T09:53:10.077Z,3.70
2018-09-19T09:55:38.773Z,3.40
2018-09-19T09:58:07.651Z,3.95
2018-09-19T10:00:42.115Z,3.62
2018-09-19T10:03:12.038Z,3.22
2018-09-19T10:05:41.384Z,3.25
2018-09-19T10:08:10.014Z,3.77
2018-09-19T10:10:39.591Z,3.20
2018-09-19T10:13:08.379Z,3.62
2018-09-19T10:15:37.075Z,3.90
2018-09-19T10:18:05.971Z,3.40
2018-09-19T10:20:34.557Z,3.33
2018-09-19T10:23:03.119Z,3.35
2018-09-19T10:25:31.853Z,3.30
2018-09-19T10:28:00.748Z,3.72
2018-09-19T10:30:29.503Z,3.52
2018-09-19T10:32:58.227Z,3.37
2018-09-19T10:35:26.933Z,3.42
2018-09-19T10:37:55.832Z,3.35
2018-09-19T10:40:24.781Z,2.98
2018-09-19T10:42:53.940Z,3.12
2018-09-19T10:45:22.566Z,2.95
2018-09-19T10:47:51.340Z,3.52
2018-09-19T10:50:20.192Z,2.90
2018-09-19T10:52:48.933Z,3.10
2018-09-19T10:55:17.887Z,3.12
2018-09-19T10:57:46.447Z,3.72
2018-09-19T11:00:14.941Z,2.80
2018-09-19T11:02:43.885Z,3.05
2018-09-19T11:05:12.937Z,3.08
2018-09-19T11:07:41.693Z,3.33
2018-09-19T11:10:10.524Z,3.22
2018-09-19T11:12:39.080Z,3.22
2018-09-19T11:15:07.605Z,2.85
2018-09-19T11:17:36.209Z,3.10
2018-09-19T11:20:05.189Z,2.83
2018-09-19T11:22:33.680Z,3.33
2018-09-19T11:25:02.269Z,3.30
2018-09-19T11:27:30.802Z,3.52
2018-09-19T11:29:59.492Z,4.60
2018-09-19T11:32:28.236Z,3.60
2018-09-19T11:34:56.804Z,3.70
2018-09-19T11:37:25.486Z,2.98
2018-09-19T11:39:54.408Z,2.58
2018-09-19T11:42:23.564Z,3.15
2018-09-19T11:44:52.351Z,3.08
2018-09-19T11:47:21.141Z,3.45
2018-09-19T11:49:49.852Z,3.22
2018-09-19T11:52:18.707Z,3.20
2018-09-19T11:54:47.318Z,3.12
2018-09-19T11:57:16.165Z,3.10
2018-09-19T11:59:45.277Z,3.25
2018-09-19T12:02:14.122Z,3.20
2018-09-19T12:04:42.951Z,3.10
2018-09-19T12:07:11.868Z,3.25
2018-09-19T12:09:40.429Z,3.10
2018-09-19T12:12:09.558Z,3.20
2018-09-19T12:14:38.185Z,3.12
2018-09-19T12:17:07.011Z,3.00
2018-09-19T12:19:36.227Z,3.08
2018-09-19T12:22:05.003Z,2.90
2018-09-19T12:24:33.752Z,2.52
2018-09-19T12:27:02.667Z,3.00
2018-09-19T12:29:31.589Z,2.67
2018-09-19T12:32:00.272Z,2.70
2018-09-19T12:34:28.840Z,2.83
2018-09-19T12:36:57.838Z,2.72
2018-09-19T12:39:26.966Z,2.85
2018-09-19T12:41:55.715Z,3.02
2018-09-19T12:44:24.663Z,2.72
2018-09-19T12:46:53.233Z,3.00
2018-09-19T12:49:22.136Z,2.67
2018-09-19T12:51:51.197Z,3.10
2018-09-19T12:54:19.934Z,2.65
2018-09-19T12:56:48.629Z,2.85
2018-09-19T12:59:17.686Z,2.90
2018-09-19T13:01:46.621Z,2.72
2018-09-19T13:04:15.457Z,3.00
2018-09-19T13:06:44.375Z,2.60
2018-09-19T13:09:12.939Z,3.10
2018-09-19T13:11:41.803Z,3.40
2018-09-19T13:14:10.784Z,2.83
2018-09-19T13:16:39.669Z,2.90
2018-09-19T13:19:08.565Z,2.75
2018-09-19T13:21:37.387Z,3.00
2018-09-19T13:24:06.158Z,2.98
2018-09-19T13:26:35.051Z,3.00
2018-09-19T13:29:03.976Z,3.05
2018-09-19T13:31:32.693Z,2.55
2018-09-19T13:34:01.908Z,2.85
2018-09-19T13:36:30.800Z,2.98
2018-09-19T13:38:59.402Z,3.17
2018-09-19T13:41:28.258Z,4.33
2018-09-19T13:43:56.830Z,6.22
2018-09-19T13:46:26.198Z,6.58
2018-09-19T13:49:02.250Z,3.75
2018-09-19T13:51:31.008Z,2.92
2018-09-19T13:53:59.768Z,2.85
2018-09-19T13:56:28.332Z,2.70
2018-09-19T13:58:57.019Z,3.02
2018-09-19T14:01:25.633Z,2.80
2018-09-19T14:03:54.389Z,2.98
2018-09-19T14:06:23.218Z,2.70
2018-09-19T14:08:52.053Z,3.15
2018-09-19T14:11:20.948Z,2.90
2018-09-19T14:13:50.456Z,2.92
2018-09-19T14:16:19.302Z,2.83
2018-09-19T14:18:48.168Z,2.87
2018-09-19T14:21:17.321Z,2.90
2018-09-19T14:23:46.324Z,3.05
2018-09-19T14:26:15.552Z,2.80
2018-09-19T14:28:44.399Z,2.90
2018-09-19T14:31:13.217Z,3.22
2018-09-19T14:33:42.243Z,3.20
2018-09-19T14:36:11.038Z,3.00
2018-09-19T14:38:39.993Z,2.90
2018-09-19T14:41:09.008Z,3.20
2018-09-19T14:43:37.663Z,2.90
2018-09-19T14:46:06.540Z,2.55
2018-09-19T14:48:35.441Z,2.92
2018-09-19T14:51:04.391Z,2.80
2018-09-19T14:53:33.099Z,2.75
2018-09-19T14:56:02.017Z,3.02
2018-09-19T14:58:30.573Z,3.05
2018-09-19T15:00:59.451Z,3.05
2018-09-19T15:03:28.389Z,2.85
2018-09-19T15:05:57.169Z,2.77
2018-09-19T15:08:25.861Z,2.87
2018-09-19T15:10:54.788Z,2.87
2018-09-19T15:13:23.863Z,2.70
2018-09-19T15:15:53.075Z,2.92
2018-09-19T15:18:21.923Z,3.00
2018-09-19T15:20:51.000Z,2.77
2018-09-19T15:23:19.650Z,2.77
2018-09-19T15:25:48.664Z,3.08
2018-09-19T15:28:17.488Z,2.47
2018-09-19T15:30:46.198Z,2.60
2018-09-19T15:33:15.295Z,2.90
2018-09-19T15:35:44.296Z,2.87
2018-09-19T15:38:13.443Z,4.95
2018-09-19T15:40:42.083Z,3.83
2018-09-19T15:43:10.982Z,2.40
2018-09-19T15:45:39.939Z,3.70
2018-09-19T15:48:08.719Z,2.67
2018-09-19T15:50:37.659Z,4.10
2018-09-19T15:53:06.501Z,2.83
2018-09-19T15:55:35.658Z,3.15
2018-09-19T15:58:04.561Z,3.00
2018-09-19T16:00:33.896Z,2.83
2018-09-19T16:03:02.813Z,3.85
2018-09-19T16:05:31.877Z,3.10
2018-09-19T16:08:00.924Z,2.80
2018-09-19T16:10:29.883Z,3.17
2018-09-19T16:12:58.464Z,3.17
2018-09-19T16:15:27.579Z,2.83
2018-09-19T16:17:56.244Z,3.08
2018-09-19T16:20:25.061Z,2.90
2018-09-19T16:22:53.899Z,2.83
2018-09-19T16:25:22.631Z,3.22
2018-09-19T16:27:51.466Z,3.05
2018-09-19T16:30:20.022Z,3.12
2018-09-19T16:32:48.718Z,3.30
2018-09-19T16:35:17.568Z,3.17
2018-09-19T16:37:46.323Z,3.10
2018-09-19T16:40:14.900Z,3.10
2018-09-19T16:42:43.806Z,3.45
2018-09-19T16:45:12.380Z,3.47
2018-09-19T16:47:41.028Z,3.40
2018-09-19T16:50:09.909Z,3.02
2018-09-19T16:52:38.788Z,2.85
2018-09-19T16:55:07.377Z,3.47
2018-09-19T16:57:36.459Z,3.30
2018-09-19T17:00:06.796Z,3.12
2018-09-19T17:02:36.110Z,3.22
2018-09-19T17:05:05.522Z,3.40
2018-09-19T17:07:34.459Z,3.58
2018-09-19T17:10:03.715Z,4.12
2018-09-19T17:12:32.718Z,3.40
2018-09-19T17:15:01.984Z,3.55
2018-09-19T17:17:30.828Z,3.58
2018-09-19T17:19:59.519Z,3.50
2018-09-19T17:22:28.409Z,4.17
2018-09-19T17:24:56.922Z,3.45
2018-09-19T17:27:26.180Z,3.70
2018-09-19T17:29:55.036Z,4.08
2018-09-19T17:32:23.907Z,3.45
2018-09-19T17:34:52.553Z,3.83
2018-09-19T17:37:21.487Z,3.65
2018-09-19T17:39:50.427Z,3.58
2018-09-19T17:42:19.284Z,4.72
2018-09-19T17:44:48.187Z,3.80
2018-09-19T17:47:17.288Z,3.52
2018-09-19T17:49:46.251Z,4.12
2018-09-19T17:52:15.158Z,3.98
2018-09-19T17:54:44.077Z,3.87
2018-09-19T17:57:12.853Z,4.25
2018-09-19T17:59:42.000Z,3.85
2018-09-19T18:02:10.995Z,4.15
2018-09-19T18:04:39.869Z,4.35
2018-09-19T18:07:08.923Z,3.67
2018-09-19T18:09:38.089Z,4.50
2018-09-19T18:12:06.868Z,4.27
2018-09-19T18:14:35.538Z,3.73
2018-09-19T18:17:04.397Z,3.37
2018-09-19T18:19:33.204Z,4.20
2018-09-19T18:22:02.177Z,3.83
2018-09-19T18:24:31.072Z,3.77
2018-09-19T18:27:00.094Z,3.90
2018-09-19T18:29:29.195Z,4.13
2018-09-19T18:31:58.023Z,4.50
2018-09-19T18:34:26.957Z,4.63
2018-09-19T18:36:55.634Z,4.40
2018-09-19T18:39:24.252Z,4.30
2018-09-19T18:41:53.210Z,4.13
2018-09-19T18:44:22.040Z,4.97
2018-09-19T18:46:51.093Z,4.27
2018-09-19T18:49:20.014Z,4.33
2018-09-19T18:51:48.793Z,4.00
2018-09-19T18:54:20.997Z,4.60
2018-09-19T18:56:50.364Z,4.40
2018-09-19T18:59:19.339Z,4.27
2018-09-19T19:01:48.160Z,4.57
2018-09-19T19:04:16.997Z,4.40
2018-09-19T19:06:46.223Z,4.67
2018-09-19T19:09:14.852Z,4.47
2018-09-19T19:11:43.834Z,4.87
2018-09-19T19:14:12.904Z,4.83
2018-09-19T19:16:41.909Z,4.43
2018-09-19T19:19:10.666Z,4.87
2018-09-19T19:21:39.338Z,4.50
2018-09-19T19:24:08.465Z,4.50
2018-09-19T19:26:37.396Z,4.77
2018-09-19T19:29:06.440Z,4.30
2018-09-19T19:31:35.147Z,4.77
2018-09-19T19:34:04.229Z,4.57
2018-09-19T19:36:33.166Z,5.00
2018-09-19T19:39:02.158Z,5.10
2018-09-19T19:41:30.951Z,4.53
2018-09-19T19:43:59.805Z,4.90
2018-09-19T19:46:28.779Z,4.97
2018-09-19T19:48:57.425Z,5.10
2018-09-19T19:51:26.410Z,4.83
2018-09-19T19:53:55.509Z,4.60
2018-09-19T19:56:24.375Z,4.97
2018-09-19T19:58:53.054Z,4.70
2018-09-19T20:01:22.430Z,5.07
2018-09-19T20:03:51.342Z,4.37
2018-09-19T20:06:20.216Z,4.97
2018-09-19T20:08:48.988Z,4.70
2018-09-19T20:11:17.913Z,4.33
2018-09-19T20:13:46.601Z,4.77
2018-09-19T20:16:15.509Z,5.10
2018-09-19T20:18:44.264Z,5.17
2018-09-19T20:21:13.218Z,5.40
2018-09-19T20:23:42.206Z,5.40
2018-09-19T20:26:11.462Z,5.00
2018-09-19T20:28:40.407Z,5.37
2018-09-19T20:31:09.396Z,5.33
2018-09-19T20:33:38.295Z,5.20
2018-09-19T20:36:06.971Z,4.87
2018-09-19T20:38:35.789Z,5.47
2018-09-19T20:41:04.487Z,5.30
2018-09-19T20:43:33.297Z,6.00
2018-09-19T20:46:02.323Z,5.20
2018-09-19T20:48:30.926Z,5.50
2018-09-19T20:50:59.601Z,5.33
2018-09-19T20:53:28.240Z,5.13
2018-09-19T20:55:56.868Z,5.07
2018-09-19T20:58:25.545Z,5.00
2018-09-19T21:00:54.171Z,5.70
2018-09-19T21:03:22.668Z,5.30
2018-09-19T21:05:51.439Z,5.20
2018-09-19T21:08:20.182Z,5.90
2018-09-19T21:10:49.050Z,5.40
2018-09-19T21:13:17.984Z,5.97
2018-09-19T21:15:46.611Z,5.73
2018-09-19T21:18:15.301Z,5.63
2018-09-19T21:20:43.877Z,5.00
2018-09-19T21:23:13.072Z,5.57
2018-09-19T21:25:41.768Z,5.77
2018-09-19T21:28:10.561Z,5.80
2018-09-19T21:30:39.211Z,5.43
2018-09-19T21:33:07.812Z,5.13
2018-09-19T21:35:36.368Z,5.73
2018-09-19T21:38:05.264Z,5.93
2018-09-19T21:40:33.949Z,5.20
2018-09-19T21:43:02.748Z,5.60
2018-09-19T21:45:31.513Z,5.67
2018-09-19T21:48:00.322Z,5.33
2018-09-19T21:50:28.940Z,4.93
2018-09-19T21:52:57.843Z,5.90
2018-09-19T21:55:26.683Z,5.83
2018-09-19T21:57:55.607Z,5.50
2018-09-19T22:00:24.583Z,6.00
2018-09-19T22:02:53.280Z,6.13
2018-09-19T22:05:22.145Z,6.00
2018-09-19T22:07:50.770Z,5.83
2018-09-19T22:10:19.279Z,5.37
2018-09-19T22:12:48.055Z,6.40
2018-09-19T22:15:16.751Z,5.87
2018-09-19T22:17:45.983Z,6.27
2018-09-19T22:20:14.843Z,5.73
2018-09-19T22:22:43.441Z,5.97
2018-09-19T22:25:12.104Z,5.17
2018-09-19T22:27:40.925Z,5.87
2018-09-19T22:30:09.433Z,5.87
2018-09-19T22:32:38.013Z,5.87
2018-09-19T22:35:06.688Z,5.77
2018-09-19T22:37:35.217Z,6.00
2018-09-19T22:40:03.780Z,6.10
2018-09-19T22:42:32.408Z,6.00
2018-09-19T22:45:00.979Z,6.07
2018-09-19T22:47:29.757Z,5.80
2018-09-19T22:49:58.663Z,5.53
2018-09-19T22:52:27.128Z,6.17
2018-09-19T22:54:55.991Z,5.80
2018-09-19T22:57:24.588Z,6.17
2018-09-19T22:59:53.228Z,5.63
2018-09-19T23:02:21.965Z,6.20
2018-09-19T23:04:50.616Z,6.40
2018-09-19T23:07:19.306Z,6.70
2018-09-19T23:09:47.843Z,5.80
2018-09-19T23:12:16.374Z,6.63
2018-09-19T23:14:45.074Z,6.00
2018-09-19T23:17:13.917Z,6.23
2018-09-19T23:19:42.424Z,6.27
2018-09-19T23:22:11.093Z,6.13
2018-09-19T23:24:39.745Z,6.33
2018-09-19T23:27:08.340Z,6.50
2018-09-19T23:29:37.345Z,6.43
2018-09-19T23:32:06.065Z,6.73
2018-09-19T23:34:34.588Z,7.40
2018-09-19T23:37:03.191Z,6.73
2018-09-19T23:39:31.715Z,6.40
2018-09-19T23:42:00.318Z,6.53
2018-09-19T23:44:28.859Z,6.43
2018-09-19T23:46:57.376Z,6.43
2018-09-19T23:49:26.388Z,6.80
2018-09-19T23:51:54.925Z,6.77
2018-09-19T23:54:23.412Z,6.27
2018-09-19T23:56:52.062Z,6.80
2018-09-19T23:59:20.620Z,7.40
